createdAt,value
2017-08-22T00:00:42.045Z,60.0
2017-08-22T00:01:43.470Z,60.4
2017-08-22T00:02:44.891Z,60.2
2017-08-22T00:03:46.317Z,60.6
2017-08-22T00:04:47.744Z,60.4
2017-08-22T00:05:49.170Z,60.3
2017-08-22T00:06:50.595Z,60.4
2017-08-22T00:07:52.023Z,60.2
2017-08-22T00:08:53.464Z,60.2
2017-08-22T00:09:54.868Z,60.7
2017-08-22T00:10:56.293Z,60.5
2017-08-22T00:11:57.716Z,60.9
2017-08-22T00:12:59.142Z,61.1
2017-08-22T00:14:00.570Z,60.7
2017-08-22T00:15:02.019Z,61.3
2017-08-22T00:16:03.447Z,60.7
2017-08-22T00:17:04.868Z,61.4
2017-08-22T00:18:06.291Z,61.2
2017-08-22T00:19:07.719Z,61.3
2017-08-22T00:20:09.142Z,61.1
2017-08-22T00:21:10.566Z,61.2
2017-08-22T00:22:11.990Z,61.0
2017-08-22T00:23:13.415Z,61.1
2017-08-22T00:24:14.839Z,61.6
2017-08-22T00:25:16.264Z,61.3
2017-08-22T00:26:17.690Z,61.3
2017-08-22T00:27:19.113Z,61.4
2017-08-22T00:28:20.538Z,61.7
2017-08-22T00:29:21.960Z,61.7
2017-08-22T00:30:23.385Z,61.7
2017-08-22T00:31:24.808Z,61.7
2017-08-22T00:32:26.234Z,61.6
2017-08-22T00:33:27.683Z,61.2
2017-08-22T00:34:29.086Z,62.0
2017-08-22T00:35:30.509Z,62.0
2017-08-22T00:36:31.941Z,61.7
2017-08-22T00:37:33.357Z,61.6
2017-08-22T00:38:34.778Z,61.7
2017-08-22T00:39:36.206Z,61.8
2017-08-22T00:40:37.637Z,61.7
2017-08-22T00:41:39.057Z,61.8
2017-08-22T00:42:40.482Z,61.9
2017-08-22T00:43:41.907Z,61.8
2017-08-22T00:44:43.331Z,62.2
2017-08-22T00:45:44.757Z,62.2
2017-08-22T00:46:46.180Z,61.7
2017-08-22T00:47:47.603Z,62.5
2017-08-22T00:48:49.030Z,61.9
2017-08-22T00:49:50.453Z,62.1
2017-08-22T00:50:51.876Z,62.3
2017-08-22T00:51:53.300Z,62.0
2017-08-22T00:52:54.724Z,61.9
2017-08-22T00:53:56.148Z,62.5
2017-08-22T00:54:57.572Z,62.6
2017-08-22T00:55:58.993Z,62.7
2017-08-22T00:57:00.420Z,62.8
2017-08-22T00:58:01.845Z,62.6
2017-08-22T00:59:03.268Z,61.9
2017-08-22T01:00:04.691Z,61.9
2017-08-22T01:01:06.110Z,62.6
2017-08-22T01:02:07.542Z,62.1
2017-08-22T01:03:08.967Z,62.1
2017-08-22T01:04:10.629Z,62.2
2017-08-22T01:05:12.006Z,62.3
2017-08-22T01:06:13.432Z,62.2
2017-08-22T01:07:14.856Z,62.1
2017-08-22T01:08:16.280Z,62.3
2017-08-22T01:09:17.701Z,62.5
2017-08-22T01:10:19.129Z,62.6
2017-08-22T01:11:20.550Z,62.6
2017-08-22T01:12:21.979Z,62.5
2017-08-22T01:13:23.403Z,62.6
2017-08-22T01:14:24.826Z,62.6
2017-08-22T01:15:26.253Z,62.4
2017-08-22T01:16:27.671Z,62.2
2017-08-22T01:17:29.098Z,63.0
2017-08-22T01:18:30.524Z,62.8
2017-08-22T01:19:31.951Z,63.1
2017-08-22T01:20:33.381Z,62.7
2017-08-22T01:21:34.800Z,62.7
2017-08-22T01:22:36.223Z,62.9
2017-08-22T01:23:37.649Z,63.0
2017-08-22T01:24:39.073Z,63.3
2017-08-22T01:25:40.495Z,62.7
2017-08-22T01:26:41.919Z,63.3
2017-08-22T01:27:43.345Z,62.4
2017-08-22T01:28:44.771Z,62.5
2017-08-22T01:29:46.194Z,62.4
2017-08-22T01:30:47.620Z,62.8
2017-08-22T01:31:49.044Z,62.5
2017-08-22T01:32:50.468Z,62.9
2017-08-22T01:33:51.898Z,63.0
2017-08-22T01:34:53.318Z,63.2
2017-08-22T01:35:54.742Z,63.4
2017-08-22T01:36:56.172Z,63.1
2017-08-22T01:37:57.595Z,63.2
2017-08-22T01:38:59.021Z,63.1
2017-08-22T01:40:00.446Z,63.0
2017-08-22T01:41:01.877Z,63.4
2017-08-22T01:42:03.291Z,63.2
2017-08-22T01:43:04.717Z,63.1
2017-08-22T01:44:06.166Z,62.9
2017-08-22T01:45:07.592Z,63.4
2017-08-22T01:46:09.016Z,62.9
2017-08-22T01:47:10.439Z,63.2
2017-08-22T01:48:11.864Z,63.2
2017-08-22T01:49:13.287Z,63.2
2017-08-22T01:50:14.712Z,63.2
2017-08-22T01:51:16.134Z,63.1
2017-08-22T01:52:17.562Z,63.5
2017-08-22T01:53:18.987Z,63.5
2017-08-22T01:54:20.414Z,63.8
2017-08-22T01:55:21.842Z,63.6
2017-08-22T01:56:23.269Z,63.4
2017-08-22T01:57:24.692Z,63.7
2017-08-22T01:58:26.120Z,63.6
2017-08-22T01:59:27.539Z,63.5
2017-08-22T02:00:28.963Z,63.6
2017-08-22T02:01:30.389Z,63.3
2017-08-22T02:02:31.816Z,63.8
2017-08-22T02:03:33.241Z,63.4
2017-08-22T02:04:34.664Z,63.4
2017-08-22T02:05:36.100Z,64.0
2017-08-22T02:06:37.515Z,63.9
2017-08-22T02:07:38.936Z,64.0
2017-08-22T02:08:40.359Z,63.9
2017-08-22T02:09:41.787Z,63.6
2017-08-22T02:10:43.210Z,64.2
2017-08-22T02:11:44.634Z,63.5
2017-08-22T02:12:46.061Z,63.6
2017-08-22T02:13:47.485Z,63.3
2017-08-22T02:14:48.910Z,63.6
2017-08-22T02:15:50.338Z,63.8
2017-08-22T02:16:51.783Z,63.6
2017-08-22T02:17:53.184Z,63.7
2017-08-22T02:18:54.610Z,63.6
2017-08-22T02:19:56.035Z,63.8
2017-08-22T02:20:57.458Z,63.8
2017-08-22T02:21:58.884Z,63.9
2017-08-22T02:23:00.309Z,64.0
2017-08-22T02:24:01.732Z,63.9
2017-08-22T02:25:03.165Z,64.0
2017-08-22T02:26:04.591Z,64.0
2017-08-22T02:27:06.017Z,63.6
2017-08-22T02:28:07.441Z,63.8
2017-08-22T02:29:08.864Z,64.0
2017-08-22T02:30:10.293Z,63.6
2017-08-22T02:31:11.713Z,63.9
2017-08-22T02:32:13.136Z,63.9
2017-08-22T02:33:14.561Z,63.8
2017-08-22T02:34:15.987Z,63.7
2017-08-22T02:35:17.409Z,63.7
2017-08-22T02:36:18.832Z,64.1
2017-08-22T02:37:20.259Z,63.7
2017-08-22T02:38:21.682Z,63.5
2017-08-22T02:39:23.107Z,64.2
2017-08-22T02:40:24.531Z,63.6
2017-08-22T02:41:25.956Z,63.6
2017-08-22T02:42:27.382Z,63.7
2017-08-22T02:43:28.811Z,64.3
2017-08-22T02:44:30.234Z,64.9
2017-08-22T02:45:31.658Z,64.4
2017-08-22T02:46:33.082Z,64.9
2017-08-22T02:47:34.506Z,64.4
2017-08-22T02:48:35.931Z,64.8
2017-08-22T02:49:37.365Z,64.8
2017-08-22T02:50:38.779Z,64.6
2017-08-22T02:51:40.203Z,64.5
2017-08-22T02:52:41.625Z,64.8
2017-08-22T02:53:43.049Z,64.6
2017-08-22T02:54:44.477Z,64.2
2017-08-22T02:55:45.900Z,64.6
2017-08-22T02:56:47.338Z,64.6
2017-08-22T02:57:48.764Z,64.2
2017-08-22T02:58:50.188Z,64.4
2017-08-22T02:59:51.616Z,64.3
2017-08-22T03:00:53.037Z,64.3
2017-08-22T03:01:54.486Z,64.9
2017-08-22T03:02:55.905Z,64.9
2017-08-22T03:03:57.329Z,64.5
2017-08-22T03:04:58.761Z,64.8
2017-08-22T03:06:00.184Z,64.4
2017-08-22T03:07:01.612Z,64.4
2017-08-22T03:08:03.037Z,64.6
2017-08-22T03:09:04.461Z,64.9
2017-08-22T03:10:05.884Z,64.9
2017-08-22T03:11:07.309Z,64.9
2017-08-22T03:12:08.736Z,64.8
2017-08-22T03:13:10.160Z,64.6
2017-08-22T03:14:11.584Z,64.6
2017-08-22T03:15:13.007Z,64.9
2017-08-22T03:16:14.431Z,64.9
2017-08-22T03:17:15.857Z,64.8
2017-08-22T03:18:17.282Z,64.9
2017-08-22T03:19:18.705Z,64.8
2017-08-22T03:20:20.127Z,65.2
2017-08-22T03:21:21.552Z,64.7
2017-08-22T03:22:22.976Z,64.9
2017-08-22T03:23:24.400Z,64.7
2017-08-22T03:24:25.822Z,65.4
2017-08-22T03:25:27.251Z,64.9
2017-08-22T03:26:28.674Z,64.9
2017-08-22T03:27:30.097Z,64.9
2017-08-22T03:28:31.523Z,65.1
2017-08-22T03:29:32.950Z,64.9
2017-08-22T03:30:34.373Z,64.9
2017-08-22T03:31:35.796Z,65.0
2017-08-22T03:32:37.223Z,64.3
2017-08-22T03:33:38.647Z,65.4
2017-08-22T03:34:40.073Z,65.3
2017-08-22T03:35:41.494Z,64.5
2017-08-22T03:36:42.921Z,64.9
2017-08-22T03:37:44.348Z,65.0
2017-08-22T03:38:45.771Z,65.0
2017-08-22T03:39:47.193Z,65.3
2017-08-22T03:40:48.618Z,65.3
2017-08-22T03:41:50.048Z,64.9
2017-08-22T03:42:51.471Z,64.6
2017-08-22T03:43:52.903Z,64.6
2017-08-22T03:44:54.323Z,65.3
2017-08-22T03:45:55.749Z,64.9
2017-08-22T03:46:57.170Z,65.3
2017-08-22T03:47:58.597Z,65.2
2017-08-22T03:49:00.021Z,65.2
2017-08-22T03:50:01.444Z,65.2
2017-08-22T03:51:02.867Z,65.3
2017-08-22T03:52:04.292Z,65.3
2017-08-22T03:53:05.719Z,65.3
2017-08-22T03:54:07.142Z,65.0
2017-08-22T03:55:08.565Z,65.0
2017-08-22T03:56:09.991Z,64.9
2017-08-22T03:57:11.412Z,65.0
2017-08-22T03:58:12.836Z,64.9
2017-08-22T03:59:14.258Z,65.0
2017-08-22T04:00:15.684Z,65.2
2017-08-22T04:01:17.106Z,65.6
2017-08-22T04:02:18.531Z,64.9
2017-08-22T04:03:19.957Z,65.1
2017-08-22T04:04:21.379Z,65.1
2017-08-22T04:05:22.805Z,65.2
2017-08-22T04:06:24.228Z,65.2
2017-08-22T04:07:25.671Z,65.5
2017-08-22T04:08:27.097Z,65.6
2017-08-22T04:09:28.530Z,65.2
2017-08-22T04:10:29.955Z,65.4
2017-08-22T04:11:31.378Z,65.5
2017-08-22T04:12:32.809Z,65.2
2017-08-22T04:13:34.234Z,65.3
2017-08-22T04:14:35.658Z,65.4
2017-08-22T04:15:37.081Z,65.6
2017-08-22T04:16:38.506Z,65.2
2017-08-22T04:17:39.931Z,65.5
2017-08-22T04:18:41.356Z,65.1
2017-08-22T04:19:42.777Z,65.5
2017-08-22T04:20:44.202Z,65.5
2017-08-22T04:21:45.630Z,65.3
2017-08-22T04:22:47.060Z,65.4
2017-08-22T04:23:48.486Z,65.2
2017-08-22T04:24:49.911Z,65.0
2017-08-22T04:25:51.335Z,65.5
2017-08-22T04:26:52.760Z,65.2
2017-08-22T04:27:54.184Z,65.2
2017-08-22T04:28:55.602Z,65.5
2017-08-22T04:29:57.030Z,65.0
2017-08-22T04:30:58.453Z,65.4
2017-08-22T04:31:59.883Z,65.2
2017-08-22T04:33:01.300Z,65.2
2017-08-22T04:34:02.725Z,65.4
2017-08-22T04:35:04.163Z,65.3
2017-08-22T04:36:05.587Z,65.4
2017-08-22T04:37:07.010Z,65.4
2017-08-22T04:38:08.434Z,65.2
2017-08-22T04:39:09.857Z,65.6
2017-08-22T04:40:11.280Z,65.2
2017-08-22T04:41:12.707Z,65.3
2017-08-22T04:42:14.136Z,65.7
2017-08-22T04:43:15.561Z,65.6
2017-08-22T04:44:16.985Z,65.5
2017-08-22T04:45:18.409Z,65.3
2017-08-22T04:46:19.834Z,65.4
2017-08-22T04:47:21.259Z,65.4
2017-08-22T04:48:22.684Z,65.7
2017-08-22T04:49:24.110Z,65.3
2017-08-22T04:50:25.532Z,65.3
2017-08-22T04:51:26.958Z,65.5
2017-08-22T04:52:28.382Z,65.6
2017-08-22T04:53:29.821Z,65.6
2017-08-22T04:54:31.254Z,65.6
2017-08-22T04:55:32.671Z,65.6
2017-08-22T04:56:34.093Z,65.6
2017-08-22T04:57:35.522Z,65.2
2017-08-22T04:58:36.944Z,65.9
2017-08-22T04:59:38.366Z,65.5
2017-08-22T05:00:39.791Z,65.7
2017-08-22T05:01:41.217Z,65.8
2017-08-22T05:02:42.640Z,65.7
2017-08-22T05:03:44.065Z,65.5
2017-08-22T05:04:45.488Z,65.1
2017-08-22T05:05:46.913Z,65.6
2017-08-22T05:06:48.332Z,66.0
2017-08-22T05:07:49.757Z,65.9
2017-08-22T05:08:51.184Z,65.6
2017-08-22T05:09:52.606Z,65.2
2017-08-22T05:10:54.034Z,65.7
2017-08-22T05:11:55.464Z,65.5
2017-08-22T05:12:56.883Z,66.1
2017-08-22T05:13:58.311Z,66.2
2017-08-22T05:14:59.735Z,66.0
2017-08-22T05:16:01.157Z,65.4
2017-08-22T05:17:02.590Z,65.5
2017-08-22T05:18:04.015Z,65.9
2017-08-22T05:19:05.440Z,65.6
2017-08-22T05:20:06.865Z,65.7
2017-08-22T05:21:08.292Z,65.8
2017-08-22T05:22:09.718Z,65.6
2017-08-22T05:23:11.144Z,65.5
2017-08-22T05:24:12.570Z,65.5
2017-08-22T05:25:13.996Z,66.2
2017-08-22T05:26:15.422Z,66.0
2017-08-22T05:27:16.844Z,66.0
2017-08-22T05:28:18.272Z,65.7
2017-08-22T05:29:19.700Z,65.9
2017-08-22T05:30:21.125Z,66.0
2017-08-22T05:31:22.550Z,65.9
2017-08-22T05:32:23.978Z,65.9
2017-08-22T05:33:25.401Z,65.5
2017-08-22T05:34:26.828Z,65.4
2017-08-22T05:35:28.255Z,65.5
2017-08-22T05:36:29.680Z,65.9
2017-08-22T05:37:31.107Z,65.5
2017-08-22T05:38:32.534Z,65.5
2017-08-22T05:39:33.958Z,65.8
2017-08-22T05:40:35.385Z,66.0
2017-08-22T05:41:36.814Z,65.7
2017-08-22T05:42:38.241Z,65.9
2017-08-22T05:43:39.666Z,65.8
2017-08-22T05:44:41.089Z,65.9
2017-08-22T05:45:42.514Z,65.6
2017-08-22T05:46:43.938Z,65.9
2017-08-22T05:47:45.366Z,65.9
2017-08-22T05:48:46.786Z,65.7
2017-08-22T05:49:48.218Z,66.0
2017-08-22T05:50:49.643Z,65.7
2017-08-22T05:51:51.071Z,66.0
2017-08-22T05:52:52.495Z,65.9
2017-08-22T05:53:53.920Z,65.9
2017-08-22T05:54:55.348Z,65.9
2017-08-22T05:55:56.772Z,65.9
2017-08-22T05:56:58.199Z,65.9
2017-08-22T05:57:59.623Z,65.9
2017-08-22T05:59:01.050Z,66.2
2017-08-22T06:00:02.475Z,66.2
2017-08-22T06:01:03.947Z,66.0
2017-08-22T06:02:05.373Z,66.2
2017-08-22T06:03:06.797Z,66.4
2017-08-22T06:04:08.222Z,66.2
2017-08-22T06:05:09.656Z,65.7
2017-08-22T06:06:11.073Z,65.7
2017-08-22T06:07:12.496Z,66.3
2017-08-22T06:08:13.936Z,65.8
2017-08-22T06:09:15.349Z,66.0
2017-08-22T06:10:16.773Z,65.8
2017-08-22T06:11:18.197Z,66.3
2017-08-22T06:12:19.625Z,66.0
2017-08-22T06:13:21.049Z,66.1
2017-08-22T06:14:22.476Z,66.0
2017-08-22T06:15:23.901Z,66.3
2017-08-22T06:16:25.327Z,65.7
2017-08-22T06:17:26.785Z,66.2
2017-08-22T06:18:28.181Z,65.8
2017-08-22T06:19:29.616Z,66.0
2017-08-22T06:20:31.044Z,66.3
2017-08-22T06:21:32.475Z,66.2
2017-08-22T06:22:33.903Z,66.4
2017-08-22T06:23:35.327Z,66.1
2017-08-22T06:24:36.753Z,66.0
2017-08-22T06:25:38.178Z,66.0
2017-08-22T06:26:39.602Z,66.1
2017-08-22T06:27:41.029Z,65.8
2017-08-22T06:28:42.454Z,66.3
2017-08-22T06:29:43.869Z,66.4
2017-08-22T06:30:45.315Z,65.8
2017-08-22T06:31:46.742Z,65.7
2017-08-22T06:32:48.165Z,66.4
2017-08-22T06:33:49.590Z,66.0
2017-08-22T06:34:51.019Z,65.7
2017-08-22T06:35:52.443Z,65.7
2017-08-22T06:36:53.872Z,65.8
2017-08-22T06:37:55.295Z,65.8
2017-08-22T06:38:56.720Z,65.7
2017-08-22T06:39:58.140Z,66.4
2017-08-22T06:40:59.569Z,66.0
2017-08-22T06:42:00.998Z,66.2
2017-08-22T06:43:02.421Z,65.9
2017-08-22T06:44:03.847Z,66.1
2017-08-22T06:45:05.275Z,65.8
2017-08-22T06:46:06.698Z,65.9
2017-08-22T06:47:08.160Z,66.0
2017-08-22T06:48:09.585Z,66.3
2017-08-22T06:49:11.009Z,65.8
2017-08-22T06:50:12.433Z,66.0
2017-08-22T06:51:13.858Z,66.2
2017-08-22T06:52:15.284Z,65.9
2017-08-22T06:53:16.710Z,66.2
2017-08-22T06:54:18.141Z,65.9
2017-08-22T06:55:19.561Z,65.9
2017-08-22T06:56:20.986Z,66.0
2017-08-22T06:57:22.411Z,65.8
2017-08-22T06:58:23.835Z,65.9
2017-08-22T06:59:25.262Z,66.0
2017-08-22T07:00:26.697Z,66.0
2017-08-22T07:01:28.121Z,65.9
2017-08-22T07:02:29.546Z,66.0
2017-08-22T07:03:30.973Z,65.8
2017-08-22T07:04:32.397Z,66.1
2017-08-22T07:05:33.824Z,65.9
2017-08-22T07:06:35.252Z,65.8
2017-08-22T07:07:36.670Z,66.0
2017-08-22T07:08:38.102Z,66.0
2017-08-22T07:09:39.527Z,66.0
2017-08-22T07:10:40.953Z,65.8
2017-08-22T07:11:42.377Z,65.9
2017-08-22T07:12:43.812Z,65.9
2017-08-22T07:13:45.240Z,66.0
2017-08-22T07:14:46.666Z,66.0
2017-08-22T07:15:48.091Z,66.2
2017-08-22T07:16:49.517Z,66.2
2017-08-22T07:17:50.940Z,65.9
2017-08-22T07:18:52.365Z,66.2
2017-08-22T07:19:53.792Z,65.5
2017-08-22T07:20:55.217Z,65.9
2017-08-22T07:21:56.640Z,65.2
2017-08-22T07:22:58.065Z,65.4
2017-08-22T07:23:59.492Z,66.1
2017-08-22T07:25:00.915Z,65.3
2017-08-22T07:26:02.343Z,65.6
2017-08-22T07:27:03.776Z,65.5
2017-08-22T07:28:05.204Z,65.2
2017-08-22T07:29:06.627Z,65.8
2017-08-22T07:30:08.053Z,65.5
2017-08-22T07:31:09.478Z,65.4
2017-08-22T07:32:10.914Z,65.0
2017-08-22T07:33:12.338Z,65.5
2017-08-22T07:34:13.767Z,65.2
2017-08-22T07:35:15.193Z,65.3
2017-08-22T07:36:16.622Z,65.3
2017-08-22T07:37:18.048Z,65.3
2017-08-22T07:38:19.474Z,65.6
2017-08-22T07:39:20.900Z,65.4
2017-08-22T07:40:22.331Z,65.3
2017-08-22T07:41:23.752Z,65.3
2017-08-22T07:42:25.177Z,65.5
2017-08-22T07:43:26.602Z,65.4
2017-08-22T07:44:28.029Z,64.9
2017-08-22T07:45:29.457Z,65.5
2017-08-22T07:46:30.879Z,65.4
2017-08-22T07:47:32.341Z,65.1
2017-08-22T07:48:33.765Z,65.1
2017-08-22T07:49:35.194Z,64.8
2017-08-22T07:50:36.624Z,65.1
2017-08-22T07:51:38.045Z,64.9
2017-08-22T07:52:39.471Z,64.9
2017-08-22T07:53:40.898Z,65.3
2017-08-22T07:54:42.325Z,65.5
2017-08-22T07:55:43.751Z,65.2
2017-08-22T07:56:45.187Z,65.2
2017-08-22T07:57:46.602Z,65.0
2017-08-22T07:58:48.033Z,65.4
2017-08-22T07:59:49.455Z,65.1
2017-08-22T08:00:50.880Z,65.2
2017-08-22T08:01:52.306Z,65.4
2017-08-22T08:02:53.731Z,64.8
2017-08-22T08:03:55.157Z,65.2
2017-08-22T08:04:56.593Z,65.0
2017-08-22T08:05:58.016Z,64.8
2017-08-22T08:06:59.443Z,65.1
2017-08-22T08:08:00.869Z,65.0
2017-08-22T08:09:02.296Z,65.1
2017-08-22T08:10:03.797Z,64.8
2017-08-22T08:11:05.242Z,64.8
2017-08-22T08:12:06.666Z,65.0
2017-08-22T08:13:08.094Z,64.7
2017-08-22T08:14:09.519Z,64.6
2017-08-22T08:15:10.945Z,64.4
2017-08-22T08:16:12.370Z,65.0
2017-08-22T08:17:13.795Z,64.1
2017-08-22T08:18:15.225Z,64.7
2017-08-22T08:19:16.651Z,64.2
2017-08-22T08:20:18.075Z,64.9
2017-08-22T08:21:19.505Z,64.4
2017-08-22T08:22:20.932Z,64.3
2017-08-22T08:23:22.357Z,63.8
2017-08-22T08:24:23.783Z,63.7
2017-08-22T08:25:25.212Z,63.8
2017-08-22T08:26:26.650Z,64.0
2017-08-22T08:27:28.077Z,64.7
2017-08-22T08:28:29.502Z,63.7
2017-08-22T08:29:30.929Z,64.0
2017-08-22T08:30:32.354Z,64.0
2017-08-22T08:31:33.779Z,64.1
2017-08-22T08:32:35.211Z,63.7
2017-08-22T08:33:36.641Z,63.5
2017-08-22T08:34:38.067Z,63.8
2017-08-22T08:35:39.492Z,63.9
2017-08-22T08:36:41.028Z,63.0
2017-08-22T08:37:42.462Z,63.6
2017-08-22T08:38:43.890Z,63.8
2017-08-22T08:39:45.324Z,63.5
2017-08-22T08:40:46.748Z,63.7
2017-08-22T08:41:48.174Z,63.4
2017-08-22T08:42:49.602Z,63.3
2017-08-22T08:43:51.030Z,63.7
2017-08-22T08:44:52.461Z,63.7
2017-08-22T08:45:53.886Z,63.5
2017-08-22T08:46:55.343Z,63.4
2017-08-22T08:47:56.771Z,63.9
2017-08-22T08:48:58.196Z,63.4
2017-08-22T08:49:59.627Z,63.6
2017-08-22T08:51:01.080Z,64.0
2017-08-22T08:52:02.507Z,63.4
2017-08-22T08:53:03.935Z,63.6
2017-08-22T08:54:05.361Z,63.5
2017-08-22T08:55:06.785Z,63.4
2017-08-22T08:56:08.220Z,63.6
2017-08-22T08:57:09.649Z,63.3
2017-08-22T08:58:11.074Z,63.6
2017-08-22T08:59:12.501Z,62.5
2017-08-22T09:00:13.928Z,63.5
2017-08-22T09:01:15.352Z,63.4
2017-08-22T09:02:16.781Z,63.7
2017-08-22T09:03:18.212Z,62.5
2017-08-22T09:04:19.639Z,62.9
2017-08-22T09:05:21.066Z,62.9
2017-08-22T09:06:22.494Z,62.3
2017-08-22T09:07:23.919Z,62.3
2017-08-22T09:08:25.349Z,62.8
2017-08-22T09:09:26.774Z,62.6
2017-08-22T09:10:28.214Z,62.9
2017-08-22T09:11:29.640Z,62.9
2017-08-22T09:12:31.064Z,62.6
2017-08-22T09:13:32.490Z,62.2
2017-08-22T09:14:33.918Z,62.5
2017-08-22T09:15:35.345Z,62.1
2017-08-22T09:16:36.770Z,62.7
2017-08-22T09:17:38.201Z,62.8
2017-08-22T09:18:39.627Z,62.8
2017-08-22T09:19:41.053Z,62.8
2017-08-22T09:20:42.484Z,62.3
2017-08-22T09:21:43.915Z,62.4
2017-08-22T09:22:45.338Z,62.1
2017-08-22T09:23:46.765Z,61.9
2017-08-22T09:24:48.194Z,62.4
2017-08-22T09:25:49.624Z,62.2
2017-08-22T09:26:51.050Z,62.5
2017-08-22T09:27:52.481Z,62.2
2017-08-22T09:28:53.904Z,62.5
2017-08-22T09:29:55.331Z,62.4
2017-08-22T09:30:56.760Z,61.8
2017-08-22T09:31:58.184Z,62.4
2017-08-22T09:32:59.614Z,61.5
2017-08-22T09:34:01.046Z,61.8
2017-08-22T09:35:02.470Z,61.9
2017-08-22T09:36:03.898Z,62.0
2017-08-22T09:37:05.325Z,62.1
2017-08-22T09:38:06.754Z,62.3
2017-08-22T09:39:08.179Z,61.8
2017-08-22T09:40:09.607Z,61.8
2017-08-22T09:41:11.037Z,62.0
2017-08-22T09:42:12.464Z,62.2
2017-08-22T09:43:13.890Z,61.8
2017-08-22T09:44:15.321Z,62.0
2017-08-22T09:45:16.748Z,62.3
2017-08-22T09:46:18.177Z,61.5
2017-08-22T09:47:19.604Z,61.2
2017-08-22T09:48:21.032Z,61.8
2017-08-22T09:49:22.460Z,61.4
2017-08-22T09:50:23.885Z,61.9
2017-08-22T09:51:25.315Z,61.5
2017-08-22T09:52:26.736Z,61.5
2017-08-22T09:53:28.169Z,61.5
2017-08-22T09:54:29.598Z,61.5
2017-08-22T09:55:31.031Z,61.5
2017-08-22T09:56:32.459Z,61.5
2017-08-22T09:57:33.886Z,61.4
2017-08-22T09:58:35.314Z,61.4
2017-08-22T09:59:36.745Z,61.4
2017-08-22T10:00:38.165Z,62.1
2017-08-22T10:01:39.593Z,61.5
2017-08-22T10:02:41.027Z,61.8
2017-08-22T10:03:42.447Z,62.2
2017-08-22T10:04:43.889Z,62.1
2017-08-22T10:05:45.321Z,61.6
2017-08-22T10:06:46.749Z,61.2
2017-08-22T10:07:48.178Z,61.4
2017-08-22T10:08:49.605Z,61.6
2017-08-22T10:09:51.030Z,61.7
2017-08-22T10:10:52.461Z,61.1
2017-08-22T10:11:53.889Z,61.1
2017-08-22T10:12:55.318Z,61.2
2017-08-22T10:13:56.745Z,61.2
2017-08-22T10:14:58.195Z,60.8
2017-08-22T10:15:59.603Z,60.9
2017-08-22T10:17:01.031Z,61.0
2017-08-22T10:18:02.458Z,61.0
2017-08-22T10:19:03.885Z,60.5
2017-08-22T10:20:05.315Z,61.1
2017-08-22T10:21:06.745Z,61.0
2017-08-22T10:22:08.172Z,61.1
2017-08-22T10:23:09.601Z,61.1
2017-08-22T10:24:11.026Z,61.5
2017-08-22T10:25:12.458Z,61.2
2017-08-22T10:26:13.883Z,60.8
2017-08-22T10:27:15.310Z,60.7
2017-08-22T10:28:16.738Z,61.1
2017-08-22T10:29:18.167Z,61.2
2017-08-22T10:30:19.596Z,61.2
2017-08-22T10:31:21.066Z,60.7
2017-08-22T10:32:22.492Z,60.5
2017-08-22T10:33:23.920Z,60.4
2017-08-22T10:34:25.349Z,60.3
2017-08-22T10:35:26.789Z,60.1
2017-08-22T10:36:28.217Z,60.1
2017-08-22T10:37:29.650Z,60.2
2017-08-22T10:38:31.081Z,60.4
2017-08-22T10:39:32.513Z,60.1
2017-08-22T10:40:33.942Z,60.3
2017-08-22T10:41:35.373Z,60.3
2017-08-22T10:42:36.804Z,60.1
2017-08-22T10:43:38.235Z,60.2
2017-08-22T10:44:39.667Z,60.4
2017-08-22T10:45:41.104Z,59.8
2017-08-22T10:46:42.534Z,60.4
2017-08-22T10:47:43.963Z,60.0
2017-08-22T10:48:45.397Z,59.8
2017-08-22T10:49:46.827Z,59.8
2017-08-22T10:50:48.261Z,59.2
2017-08-22T10:51:49.693Z,59.7
2017-08-22T10:52:51.121Z,59.7
2017-08-22T10:53:52.551Z,60.0
2017-08-22T10:54:53.984Z,59.8
2017-08-22T10:55:55.416Z,59.3
2017-08-22T10:56:56.846Z,60.2
2017-08-22T10:57:58.277Z,59.1
2017-08-22T10:58:59.709Z,59.4
2017-08-22T11:00:01.141Z,59.2
2017-08-22T11:01:02.581Z,59.2
2017-08-22T11:02:04.008Z,59.0
2017-08-22T11:03:05.437Z,59.5
2017-08-22T11:04:06.866Z,59.2
2017-08-22T11:05:08.294Z,59.4
2017-08-22T11:06:09.724Z,59.1
2017-08-22T11:07:11.154Z,59.1
2017-08-22T11:08:12.586Z,59.1
2017-08-22T11:09:14.018Z,59.2
2017-08-22T11:10:15.448Z,58.8
2017-08-22T11:11:16.875Z,59.1
2017-08-22T11:12:18.305Z,59.0
2017-08-22T11:13:19.734Z,59.3
2017-08-22T11:14:21.162Z,58.8
2017-08-22T11:15:22.595Z,58.9
2017-08-22T11:16:24.022Z,59.0
2017-08-22T11:17:25.451Z,58.9
2017-08-22T11:18:26.879Z,59.0
2017-08-22T11:19:28.308Z,59.0
2017-08-22T11:20:29.739Z,58.2
2017-08-22T11:21:31.170Z,59.0
2017-08-22T11:22:32.660Z,58.8
2017-08-22T11:23:34.088Z,58.7
2017-08-22T11:24:35.515Z,58.7
2017-08-22T11:25:36.946Z,58.9
2017-08-22T11:26:38.375Z,58.7
2017-08-22T11:27:39.806Z,58.8
2017-08-22T11:28:41.236Z,58.9
2017-08-22T11:29:42.664Z,58.5
2017-08-22T11:30:44.091Z,58.4
2017-08-22T11:31:45.520Z,58.6
2017-08-22T11:32:46.951Z,58.3
2017-08-22T11:33:48.379Z,58.8
2017-08-22T11:34:49.810Z,58.7
2017-08-22T11:35:51.238Z,58.5
2017-08-22T11:36:52.669Z,58.8
2017-08-22T11:37:54.099Z,58.7
2017-08-22T11:38:55.527Z,58.7
2017-08-22T11:39:56.957Z,58.4
2017-08-22T11:40:58.385Z,58.8
2017-08-22T11:41:59.815Z,58.3
2017-08-22T11:43:01.246Z,58.2
2017-08-22T11:44:02.676Z,58.0
2017-08-22T11:45:04.105Z,58.2
2017-08-22T11:46:05.536Z,57.8
2017-08-22T11:47:06.969Z,57.7
2017-08-22T11:48:08.397Z,57.6
2017-08-22T11:49:09.820Z,58.1
2017-08-22T11:50:11.258Z,57.9
2017-08-22T11:51:12.691Z,57.8
2017-08-22T11:52:14.118Z,57.6
2017-08-22T11:53:15.547Z,57.8
2017-08-22T11:54:16.979Z,57.8
2017-08-22T11:55:18.408Z,57.5
2017-08-22T11:56:19.836Z,57.4
2017-08-22T11:57:21.279Z,57.4
2017-08-22T11:58:22.698Z,57.5
2017-08-22T11:59:24.127Z,57.3
2017-08-22T12:00:25.557Z,57.5
2017-08-22T12:01:26.985Z,57.4
2017-08-22T12:02:28.416Z,57.4
2017-08-22T12:03:29.845Z,57.2
2017-08-22T12:04:31.279Z,57.5
2017-08-22T12:05:32.704Z,57.5
2017-08-22T12:06:34.135Z,57.5
2017-08-22T12:07:35.565Z,57.7
2017-08-22T12:08:36.995Z,57.5
2017-08-22T12:09:38.427Z,57.0
2017-08-22T12:10:39.855Z,57.3
2017-08-22T12:11:41.343Z,57.0
2017-08-22T12:12:42.781Z,57.2
2017-08-22T12:13:44.203Z,57.4
2017-08-22T12:14:45.641Z,57.3
2017-08-22T12:15:47.070Z,57.1
2017-08-22T12:16:48.500Z,56.6
2017-08-22T12:17:49.928Z,56.7
2017-08-22T12:18:51.370Z,56.7
2017-08-22T12:19:52.801Z,56.8
2017-08-22T12:20:54.230Z,56.8
2017-08-22T12:21:55.659Z,56.6
2017-08-22T12:22:57.092Z,56.7
2017-08-22T12:23:58.522Z,56.3
2017-08-22T12:24:59.953Z,56.5
2017-08-22T12:26:01.383Z,57.2
2017-08-22T12:27:02.812Z,56.6
2017-08-22T12:28:04.245Z,56.5
2017-08-22T12:29:05.708Z,57.3
2017-08-22T12:30:07.144Z,56.6
2017-08-22T12:31:08.578Z,56.8
2017-08-22T12:32:10.008Z,56.9
2017-08-22T12:33:11.443Z,56.8
2017-08-22T12:34:12.869Z,56.5
2017-08-22T12:35:14.300Z,56.5
2017-08-22T12:36:15.728Z,56.4
2017-08-22T12:37:17.162Z,56.6
2017-08-22T12:38:18.595Z,56.2
2017-08-22T12:39:20.022Z,56.1
2017-08-22T12:40:21.453Z,56.4
2017-08-22T12:41:22.885Z,56.0
2017-08-22T12:42:24.316Z,55.8
2017-08-22T12:43:25.745Z,55.8
2017-08-22T12:44:27.174Z,56.0
2017-08-22T12:45:28.610Z,55.9
2017-08-22T12:46:30.045Z,55.8
2017-08-22T12:47:31.472Z,55.9
2017-08-22T12:48:32.903Z,55.6
2017-08-22T12:49:34.335Z,55.8
2017-08-22T12:50:35.773Z,55.8
2017-08-22T12:51:37.197Z,55.8
2017-08-22T12:52:38.627Z,55.7
2017-08-22T12:53:40.057Z,55.8
2017-08-22T12:54:41.489Z,55.6
2017-08-22T12:55:42.920Z,55.5
2017-08-22T12:56:44.349Z,55.9
2017-08-22T12:57:45.781Z,56.0
2017-08-22T12:58:47.208Z,55.9
2017-08-22T12:59:48.639Z,55.2
2017-08-22T13:00:50.076Z,55.5
2017-08-22T13:01:51.506Z,56.1
2017-08-22T13:02:52.938Z,55.9
2017-08-22T13:03:54.369Z,55.9
2017-08-22T13:04:55.797Z,55.4
2017-08-22T13:05:57.237Z,55.6
2017-08-22T13:06:58.668Z,55.6
2017-08-22T13:08:00.101Z,56.0
2017-08-22T13:09:01.555Z,55.4
2017-08-22T13:10:02.962Z,55.5
2017-08-22T13:11:04.395Z,55.0
2017-08-22T13:12:05.824Z,55.3
2017-08-22T13:13:07.255Z,55.1
2017-08-22T13:14:08.686Z,55.1
2017-08-22T13:15:10.117Z,54.8
2017-08-22T13:16:11.574Z,54.6
2017-08-22T13:17:13.006Z,54.6
2017-08-22T13:18:14.439Z,54.5
2017-08-22T13:19:15.868Z,54.7
2017-08-22T13:20:17.299Z,54.3
2017-08-22T13:21:18.728Z,54.5
2017-08-22T13:22:20.176Z,54.1
2017-08-22T13:23:21.609Z,54.4
2017-08-22T13:24:23.040Z,54.2
2017-08-22T13:25:24.468Z,54.0
2017-08-22T13:26:25.903Z,53.9
2017-08-22T13:27:27.332Z,54.0
2017-08-22T13:28:28.764Z,54.3
2017-08-22T13:29:30.195Z,53.7
2017-08-22T13:30:31.626Z,53.7
2017-08-22T13:31:33.055Z,53.7
2017-08-22T13:32:34.490Z,53.4
2017-08-22T13:33:35.917Z,53.1
2017-08-22T13:34:37.349Z,52.8
2017-08-22T13:35:38.780Z,52.9
2017-08-22T13:36:40.241Z,52.6
2017-08-22T13:37:41.665Z,52.6